NCAR-RAP Real-Time Weather Data

Output produced by METARs form (28 June 2017  12:06 UTC)
found at http://weather.rap.ucar.edu/surface/
 
Conditions at: KFMY observed 28 June 2017  11:53 UTC
Temperature: 25.6°C (78°F)
Dewpoint: 24.4°C (76°F) [RH = 93%]
Pressure (altimeter): 30.00 inches Hg (1016.0 mb)
[Sea-level pressure: 1016.2 mb]
Winds: calm
Visibility: 10 or more miles (16+ km)
Ceiling: at least 12,000 feet AGL
Clouds: sky clear below 12,000 feet AGL
Present Weather: no significant weather observed at this time
KFMY 281153Z 00000KT 10SM CLR 26/24 A3000 RMK AO2 SLP162 70150 T02560244 10256 20239 51010

Conditions at: KFMY observed 28 June 2017  10:53 UTC
Temperature: 23.9°C (75°F)
Dewpoint: 23.9°C (75°F) [RH = 100%]
Pressure (altimeter): 30.00 inches Hg (1016.0 mb)
[Sea-level pressure: 1016.1 mb]
Winds: calm
Visibility: 8 miles (13 km)
Ceiling: at least 12,000 feet AGL
Clouds: sky clear below 12,000 feet AGL
Present Weather: no significant weather observed at this time
KFMY 281053Z 00000KT 8SM CLR 24/24 A3000 RMK AO2 SLP161 T02390239

Conditions at: KFMY observed 28 June 2017  09:53 UTC
Temperature: 23.9°C (75°F)
Dewpoint: 23.9°C (75°F) [RH = 100%]
Pressure (altimeter): 29.99 inches Hg (1015.7 mb)
[Sea-level pressure: 1015.6 mb]
Winds: calm
Visibility: 10 or more miles (16+ km)
Ceiling: at least 12,000 feet AGL
Clouds: sky clear below 12,000 feet AGL
Present Weather: automated observation with no human augmentation;
there may or may not be significant weather present at this time
KFMY 280953Z AUTO 00000KT 10SM CLR 24/24 A2999 RMK AO2 SLP156 T02390239

Conditions at: KFMY observed 28 June 2017  08:53 UTC
Temperature: 23.9°C (75°F)
Dewpoint: 23.9°C (75°F) [RH = 100%]
Pressure (altimeter): 29.97 inches Hg (1015.0 mb)
[Sea-level pressure: 1015.1 mb]
Winds: calm
Visibility: 10 or more miles (16+ km)
Ceiling: at least 12,000 feet AGL
Clouds: sky clear below 12,000 feet AGL
Present Weather: automated observation with no human augmentation;
there may or may not be significant weather present at this time
KFMY 280853Z AUTO 00000KT 10SM CLR 24/24 A2997 RMK AO2 SLP151 T02390239 56009

Conditions at: KFMY observed 28 June 2017  07:53 UTC
Temperature: 24.4°C (76°F)
Dewpoint: 24.4°C (76°F) [RH = 100%]
Pressure (altimeter): 29.97 inches Hg (1015.0 mb)
[Sea-level pressure: 1015.1 mb]
Winds: calm
Visibility: 10 or more miles (16+ km)
Ceiling: at least 12,000 feet AGL
Clouds: sky clear below 12,000 feet AGL
Present Weather: automated observation with no human augmentation;
there may or may not be significant weather present at this time
KFMY 280753Z AUTO 00000KT 10SM CLR 24/24 A2997 RMK AO2 SLP151 T02440244

Conditions at: KFMY observed 28 June 2017  06:53 UTC
Temperature: 24.4°C (76°F)
Dewpoint: 24.4°C (76°F) [RH = 100%]
Pressure (altimeter): 29.99 inches Hg (1015.7 mb)
[Sea-level pressure: 1015.5 mb]
Winds: from the ESE (120 degrees) at 3 MPH (3 knots; 1.6 m/s)
Visibility: 10 or more miles (16+ km)
Ceiling: at least 12,000 feet AGL
Clouds: sky clear below 12,000 feet AGL
Present Weather: automated observation with no human augmentation;
there may or may not be significant weather present at this time
KFMY 280653Z AUTO 12003KT 10SM CLR 24/24 A2999 RMK AO2 SLP155 T02440244

Conditions at: KFMY observed 28 June 2017  05:53 UTC
Temperature: 24.4°C (76°F)
Dewpoint: 24.4°C (76°F) [RH = 100%]
Pressure (altimeter): 30.00 inches Hg (1016.0 mb)
[Sea-level pressure: 1016.0 mb]
Winds: from the SSE (150 degrees) at 5 MPH (4 knots; 2.1 m/s)
Visibility: 10 or more miles (16+ km)
Ceiling: at least 12,000 feet AGL
Clouds: sky clear below 12,000 feet AGL
Present Weather: automated observation with no human augmentation;
there may or may not be significant weather present at this time
KFMY 280553Z AUTO 15004KT 10SM CLR 24/24 A3000 RMK AO2 SLP160 60000 T02440244 10278 20244 58008

Conditions at: KFMY observed 28 June 2017  04:53 UTC
Temperature: 24.4°C (76°F)
Dewpoint: 24.4°C (76°F) [RH = 100%]
Pressure (altimeter): 30.02 inches Hg (1016.7 mb)
[Sea-level pressure: 1016.8 mb]
Winds: from the ESE (110 degrees) at 3 MPH (3 knots; 1.6 m/s)
Visibility: 10 or more miles (16+ km)
Ceiling: at least 12,000 feet AGL
Clouds: few clouds at 6000 feet AGL
Present Weather: automated observation with no human augmentation;
there may or may not be significant weather present at this time
KFMY 280453Z AUTO 11003KT 10SM FEW060 24/24 A3002 RMK AO2 SLP168 T02440244 403170233

Conditions at: KFMY observed 28 June 2017  03:53 UTC
Temperature: 25.0°C (77°F)
Dewpoint: 23.9°C (75°F) [RH = 94%]
Pressure (altimeter): 30.03 inches Hg (1017.0 mb)
[Sea-level pressure: 1017.0 mb]
Winds: from the ENE (60 degrees) at 7 MPH (6 knots; 3.1 m/s)
Visibility: 10 or more miles (16+ km)
Ceiling: 7000 feet AGL
Clouds: broken clouds at 7000 feet AGL
broken clouds at 10000 feet AGL
Present Weather: automated observation with no human augmentation;
there may or may not be significant weather present at this time
KFMY 280353Z AUTO 06006KT 10SM BKN070 BKN100 25/24 A3003 RMK AO2 SLP170 T02500239

Conditions at: KFMY observed 28 June 2017  02:53 UTC
Temperature: 26.1°C (79°F)
Dewpoint: 23.3°C (74°F) [RH = 85%]
Pressure (altimeter): 30.02 inches Hg (1016.7 mb)
[Sea-level pressure: 1016.8 mb]
Winds: calm
Visibility: 10 or more miles (16+ km)
Ceiling: 6000 feet AGL
Clouds: few clouds at 2900 feet AGL
scattered clouds at 4100 feet AGL
broken clouds at 6000 feet AGL
Present Weather: automated observation with no human augmentation;
there may or may not be significant weather present at this time
KFMY 280253Z AUTO 00000KT 10SM FEW029 SCT041 BKN060 26/23 A3002 RMK AO2 SLP168 60000 T02610233 53020

Conditions at: KFMY observed 28 June 2017  01:53 UTC
Temperature: 26.1°C (79°F)
Dewpoint: 23.3°C (74°F) [RH = 85%]
Pressure (altimeter): 30.00 inches Hg (1016.0 mb)
[Sea-level pressure: 1016.1 mb]
Winds: from the NNE (20 degrees) at 5 MPH (4 knots; 2.1 m/s)
Visibility: 10 or more miles (16+ km)
Ceiling: 10000 feet AGL
Clouds: broken clouds at 10000 feet AGL
Present Weather: automated observation with no human augmentation;
there may or may not be significant weather present at this time
KFMY 280153Z AUTO 02004KT 10SM BKN100 26/23 A3000 RMK AO2 LTG DSNT E SLP161 T02610233

Conditions at: KFMY observed 28 June 2017  01:43 UTC
Temperature: 26.1°C (79°F)
Dewpoint: 23.3°C (74°F) [RH = 85%]
Pressure (altimeter): 30.00 inches Hg (1016.0 mb)
Winds: from the NNE (20 degrees) at 6 MPH (5 knots; 2.6 m/s)
Visibility: 10 or more miles (16+ km)
Ceiling: 11000 feet AGL
Clouds: few clouds at 4100 feet AGL
broken clouds at 11000 feet AGL
Present Weather: no significant weather observed at this time
KFMY 280143Z 02005KT 10SM FEW041 BKN110 26/23 A3000 RMK AO2 LTG DSNT E T02610233

Conditions at: KFMY observed 28 June 2017  01:25 UTC
Temperature: 26.7°C (80°F)
Dewpoint: 23.3°C (74°F) [RH = 82%]
Pressure (altimeter): 29.99 inches Hg (1015.7 mb)
Winds: from the N (360 degrees) at 6 MPH (5 knots; 2.6 m/s)
Visibility: 10 or more miles (16+ km)
Ceiling: at least 12,000 feet AGL
Clouds: few clouds at 3200 feet AGL
few clouds at 10000 feet AGL
Present Weather: VCTS  (thunderstorm in vicinity)
KFMY 280125Z 36005KT 10SM VCTS FEW032 FEW100 27/23 A2999 RMK AO2 LTG DSNT NW T02670233

Conditions at: KFMY observed 28 June 2017  00:53 UTC
Temperature: 27.2°C (81°F)
Dewpoint: 22.8°C (73°F) [RH = 77%]
Pressure (altimeter): 29.97 inches Hg (1015.0 mb)
[Sea-level pressure: 1015.2 mb]
Winds: from the NNE (30 degrees) at 6 MPH (5 knots; 2.6 m/s)
Visibility: 10 or more miles (16+ km)
Ceiling: 8000 feet AGL
Clouds: few clouds at 2900 feet AGL
scattered clouds at 4800 feet AGL
broken clouds at 8000 feet AGL
Present Weather: no significant weather observed at this time
KFMY 280053Z 03005KT 10SM FEW029 SCT048 BKN080 27/23 A2997 RMK AO2 RAB38E52 SLP152 P0000 T02720228

Conditions at: KFMY observed 27 June 2017  23:53 UTC
Temperature: 26.7°C (80°F)
Dewpoint: 25.0°C (77°F) [RH = 90%]
Pressure (altimeter): 29.96 inches Hg (1014.6 mb)
[Sea-level pressure: 1014.7 mb]
Winds: calm
Visibility: 10 or more miles (16+ km)
Ceiling: at least 12,000 feet AGL
Clouds: scattered clouds at 9500 feet AGL
Present Weather: no significant weather observed at this time
KFMY 272353Z 00000KT 10SM SCT095 27/25 A2996 RMK AO2 LTG DSNT N RAB02E32 SLP147 P0008 60014 T02670250 10306 20244 53003

Conditions at: KFMY observed 27 June 2017  23:26 UTC
Temperature: 27.2°C (81°F)
Dewpoint: 24.4°C (76°F) [RH = 85%]
Pressure (altimeter): 29.95 inches Hg (1014.3 mb)
Winds: from the NW (310 degrees) at 6 MPH (5 knots; 2.6 m/s)
Visibility: 7 miles (11 km)
Ceiling: 7000 feet AGL
Clouds: few clouds at 3000 feet AGL
broken clouds at 7000 feet AGL
overcast cloud deck at 9000 feet AGL
Present Weather: -RA  (light rain)
KFMY 272326Z 31005KT 7SM -RA FEW030 BKN070 OVC090 27/24 A2995 RMK AO2 LTG DSNT N RAB02 P0008 T02720244

Conditions at: KFMY observed 27 June 2017  23:19 UTC
Temperature: 26.7°C (80°F)
Dewpoint: 23.9°C (75°F) [RH = 85%]
Pressure (altimeter): 29.95 inches Hg (1014.3 mb)
Winds: from the WNW (290 degrees) at 7 MPH (6 knots; 3.1 m/s)
Visibility: 2.50 miles (4.02 km)
Ceiling: 5500 feet AGL
Clouds: few clouds at 2400 feet AGL
broken clouds at 5500 feet AGL
overcast cloud deck at 7000 feet AGL
Present Weather: RA  (rain)
KFMY 272319Z 29006KT 2 1/2SM RA FEW024 BKN055 OVC070 27/24 A2995 RMK AO2 LTG DSNT N RAB02 P0007 T02670239

Conditions at: KFMY observed 27 June 2017  22:53 UTC
Temperature: 29.4°C (85°F)
Dewpoint: 23.9°C (75°F) [RH = 72%]
Pressure (altimeter): 29.95 inches Hg (1014.3 mb)
[Sea-level pressure: 1014.3 mb]
Winds: from the S (190 degrees) at 8 MPH (7 knots; 3.6 m/s)
Visibility: 10 or more miles (16+ km)
Ceiling: at least 12,000 feet AGL
Clouds: scattered clouds at 3600 feet AGL
Present Weather: no significant weather observed at this time
KFMY 272253Z 19007KT 10SM SCT036 29/24 A2995 RMK AO2 RAE2159 SLP143 P0000 T02940239

Conditions at: KFMY observed 27 June 2017  21:53 UTC
Temperature: 28.3°C (83°F)
Dewpoint: 25.0°C (77°F) [RH = 82%]
Pressure (altimeter): 29.94 inches Hg (1014.0 mb)
[Sea-level pressure: 1014.2 mb]
Winds: from the WSW (250 degrees) at 7 MPH (6 knots; 3.1 m/s)
Visibility: 10 or more miles (16+ km)
Ceiling: at least 12,000 feet AGL
Clouds: few clouds at 4200 feet AGL
few clouds at 8000 feet AGL
scattered clouds at 11000 feet AGL
Present Weather: -RA  (light rain)
KFMY 272153Z 25006KT 10SM -RA FEW042 FEW080 SCT110 28/25 A2994 RMK AO2 RAB50 SLP142 P0000 T02830250

Conditions at: KFMY observed 27 June 2017  20:53 UTC
Temperature: 30.0°C (86°F)
Dewpoint: 24.4°C (76°F) [RH = 72%]
Pressure (altimeter): 29.95 inches Hg (1014.3 mb)
[Sea-level pressure: 1014.5 mb]
Winds: from the S (190 degrees) at 5 MPH (4 knots; 2.1 m/s)
Visibility: 10 or more miles (16+ km)
Ceiling: at least 12,000 feet AGL
Clouds: few clouds at 3300 feet AGL
scattered clouds at 11000 feet AGL
Present Weather: no significant weather observed at this time
KFMY 272053Z 19004KT 10SM FEW033 SCT110 30/24 A2995 RMK AO2 SLP145 60006 T03000244 56020

Conditions at: KFMY observed 27 June 2017  19:53 UTC
Temperature: 28.3°C (83°F)
Dewpoint: 25.0°C (77°F) [RH = 82%]
Pressure (altimeter): 29.97 inches Hg (1015.0 mb)
[Sea-level pressure: 1014.9 mb]
Winds: calm
Visibility: 10 or more miles (16+ km)
Ceiling: at least 12,000 feet AGL
Clouds: sky clear below 12,000 feet AGL
Present Weather: no significant weather observed at this time
KFMY 271953Z 00000KT 10SM CLR 28/25 A2997 RMK AO2 LTG DSNT SE AND S RAE1858 SLP149 P0000 T02830250

Conditions at: KFMY observed 27 June 2017  18:53 UTC
Temperature: 25.6°C (78°F)
Dewpoint: 24.4°C (76°F) [RH = 93%]
Pressure (altimeter): 29.99 inches Hg (1015.7 mb)
[Sea-level pressure: 1015.5 mb]
Winds: calm
Visibility: 10 or more miles (16+ km)
Ceiling: 11000 feet AGL
Clouds: scattered clouds at 5500 feet AGL
scattered clouds at 7500 feet AGL
overcast cloud deck at 11000 feet AGL
Present Weather: -RA  (light rain)
KFMY 271853Z 00000KT 10SM -RA SCT055 SCT075 OVC110 26/24 A2999 RMK AO2 LTG DSNT NE AND NW TSE02 SLP155 P0006 T02560244

Conditions at: KFMY observed 27 June 2017  18:28 UTC
Temperature: 25.0°C (77°F)
Dewpoint: 24.4°C (76°F) [RH = 96%]
Pressure (altimeter): 30.00 inches Hg (1016.0 mb)
Winds: calm
Visibility: 10 or more miles (16+ km)
Ceiling: 11000 feet AGL
Clouds: scattered clouds at 7500 feet AGL
overcast cloud deck at 11000 feet AGL
Present Weather: RA  (rain)
KFMY 271828Z 00000KT 10SM RA SCT075 OVC110 25/24 A3000 RMK AO2 LTG DSNT E TSE02 P0006 T02500244

Conditions at: KFMY observed 27 June 2017  18:08 UTC
Temperature: 24.4°C (76°F)
Dewpoint: 23.9°C (75°F) [RH = 97%]
Pressure (altimeter): 30.01 inches Hg (1016.3 mb)
Winds: calm
Visibility: 5 miles (8 km)
Ceiling: 9000 feet AGL
Clouds: few clouds at 7000 feet AGL
broken clouds at 9000 feet AGL
overcast cloud deck at 11000 feet AGL
Present Weather: VCTS RA BR  (thunderstorm in vicinity, rain, mist)
KFMY 271808Z 00000KT 5SM VCTS RA BR FEW070 BKN090 OVC110 24/24 A3001 RMK AO2 LTG DSNT N TSE02 P0004 T02440239

Conditions at: KFMY observed 27 June 2017  17:53 UTC
Temperature: 24.4°C (76°F)
Dewpoint: 23.9°C (75°F) [RH = 97%]
Pressure (altimeter): 30.01 inches Hg (1016.3 mb)
[Sea-level pressure: 1016.5 mb]
Winds: from the S (190 degrees) at 3 MPH (3 knots; 1.6 m/s)
Visibility: 4 miles (6 km)
Ceiling: 10000 feet AGL
Clouds: few clouds at 8000 feet AGL
overcast cloud deck at 10000 feet AGL
Present Weather: TSRA BR  (rain associated with thunderstorm(s), mist)
KFMY 271753Z 19003KT 4SM TSRA BR FEW080 OVC100 24/24 A3001 RMK AO2 LTG DSNT N TSE45B47 SLP165 P0060 60136 T02440239 10317 20233 50000

Conditions at: KFMY observed 27 June 2017  17:33 UTC
Temperature: 23.9°C (75°F)
Dewpoint: 23.3°C (74°F) [RH = 96%]
Pressure (altimeter): 30.02 inches Hg (1016.7 mb)
Winds: from the S (190 degrees) at 6 MPH (5 knots; 2.6 m/s)
Visibility: 3 miles (5 km)
Ceiling: 7000 feet AGL
Clouds: scattered clouds at 4800 feet AGL
broken clouds at 7000 feet AGL
overcast cloud deck at 10000 feet AGL
Present Weather: TSRA BR  (rain associated with thunderstorm(s), mist)
KFMY 271733Z 19005KT 3SM TSRA BR SCT048 BKN070 OVC100 24/23 A3002 RMK AO2 LTG DSNT N AND E P0054 T02390233

Conditions at: KFMY observed 27 June 2017  17:00 UTC
Temperature: 23.3°C (74°F)
Dewpoint: 23.3°C (74°F) [RH = 100%]
Pressure (altimeter): 30.04 inches Hg (1017.4 mb)
Winds: from the ESE (110 degrees) at 8 MPH (7 knots; 3.6 m/s)
Visibility: 1.00 miles (1.61 km)
Ceiling: 3400 feet AGL
Clouds: overcast cloud deck at 3400 feet AGL
Present Weather: +TSRA BR  (heavy rain associated with thunderstorm(s), mist)
KFMY 271700Z 11007KT 1SM +TSRA BR OVC034 23/23 A3004 RMK AO2 LTG DSNT NE P0012 T02330233

Conditions at: KFMY observed 27 June 2017  16:53 UTC
Temperature: 23.9°C (75°F)
Dewpoint: 23.9°C (75°F) [RH = 100%]
Pressure (altimeter): 30.04 inches Hg (1017.4 mb)
[Sea-level pressure: 1017.3 mb]
Winds: from the E (100 degrees) at 12 MPH (10 knots; 5.2 m/s)
Visibility: 0.50 miles (0.80 km)
Ceiling: 2400 feet AGL
Clouds: broken clouds at 2400 feet AGL
overcast cloud deck at 3200 feet AGL
Present Weather: +TSRA FG  (heavy rain associated with thunderstorm(s), fog)
KFMY 271653Z 10010KT 1/2SM +TSRA FG BKN024 OVC032 24/24 A3004 RMK AO2 LTG DSNT N AND NE RAB23 TSB18 SLP173 TS OVHD LTGICCCCG P0076 T02390239

Conditions at: KFMY observed 27 June 2017  16:28 UTC
Temperature: 26.1°C (79°F)
Dewpoint: 23.9°C (75°F) [RH = 88%]
Pressure (altimeter): 30.02 inches Hg (1016.7 mb)
Winds: calm
Visibility: 1.25 miles (2.01 km)
Ceiling: 3000 feet AGL
Clouds: few clouds at 2400 feet AGL
broken clouds at 3000 feet AGL
broken clouds at 3600 feet AGL
Present Weather: +TSRA BR  (heavy rain associated with thunderstorm(s), mist)
KFMY 271628Z 00000KT 1 1/4SM +TSRA BR FEW024 BKN030 BKN036 26/24 A3002 RMK AO2 RAB23 TSB18 P0002 T02610239

Conditions at: KFMY observed 27 June 2017  16:22 UTC
Temperature: 27.8°C (82°F)
Dewpoint: 22.8°C (73°F) [RH = 74%]
Pressure (altimeter): 30.01 inches Hg (1016.3 mb)
Winds: from the NNW (340 degrees) at 15 MPH (13 knots; 6.8 m/s)
gusting to 25 MPH (22 knots; 11.4 m/s)
Visibility: 10 or more miles (16+ km)
Ceiling: 2900 feet AGL
Clouds: broken clouds at 2900 feet AGL
broken clouds at 3600 feet AGL
Present Weather: TS  (thunderstorm)
KFMY 271622Z 34013G22KT 10SM TS BKN029 BKN036 28/23 A3001 RMK AO2 TSB18 T02780228

Conditions at: KFMY observed 27 June 2017  16:14 UTC
Temperature: 29.4°C (85°F)
Dewpoint: 24.4°C (76°F) [RH = 75%]
Pressure (altimeter): 30.00 inches Hg (1016.0 mb)
Winds: from the NNW (330 degrees) at 14 MPH (12 knots; 6.2 m/s)
gusting to 17 MPH (15 knots; 7.8 m/s)
Visibility: 10 or more miles (16+ km)
Ceiling: 3300 feet AGL
Clouds: broken clouds at 3300 feet AGL
broken clouds at 5000 feet AGL
Present Weather: VCTS  (thunderstorm in vicinity)
KFMY 271614Z 33012G15KT 10SM VCTS BKN033 BKN050 29/24 A3000 RMK AO2 T02940244

Conditions at: KFMY observed 27 June 2017  16:06 UTC
Temperature: 30.6°C (87°F)
Dewpoint: 24.4°C (76°F) [RH = 70%]
Pressure (altimeter): 30.00 inches Hg (1016.0 mb)
Winds: from the WNW (300 degrees) at 8 MPH (7 knots; 3.6 m/s)
Visibility: 10 or more miles (16+ km)
Ceiling: 3300 feet AGL
Clouds: broken clouds at 3300 feet AGL
broken clouds at 5000 feet AGL
Present Weather: no significant weather observed at this time
KFMY 271606Z 30007KT 10SM BKN033 BKN050 31/24 A3000 RMK AO2 LTG DSNT N T03060244

Conditions at: KFMY observed 27 June 2017  15:53 UTC
Temperature: 31.1°C (88°F)
Dewpoint: 23.9°C (75°F) [RH = 66%]
Pressure (altimeter): 30.01 inches Hg (1016.3 mb)
[Sea-level pressure: 1016.3 mb]
Winds: from the SW (230 degrees) at 9 MPH (8 knots; 4.2 m/s)
Visibility: 10 or more miles (16+ km)
Ceiling: 4700 feet AGL
Clouds: scattered clouds at 3300 feet AGL
broken clouds at 4700 feet AGL
broken clouds at 5500 feet AGL
Present Weather: VCTS  (thunderstorm in vicinity)
KFMY 271553Z 23008KT 10SM VCTS SCT033 BKN047 BKN055 31/24 A3001 RMK AO2 LTG DSNT N SLP163 T03110239

Conditions at: KFMY observed 27 June 2017  15:39 UTC
Temperature: 31.7°C (89°F)
Dewpoint: 24.4°C (76°F) [RH = 65%]
Pressure (altimeter): 30.01 inches Hg (1016.3 mb)
Winds: calm
Visibility: 10 or more miles (16+ km)
Ceiling: at least 12,000 feet AGL
Clouds: few clouds at 3100 feet AGL
scattered clouds at 3800 feet AGL
scattered clouds at 4700 feet AGL
Present Weather: VCTS  (thunderstorm in vicinity)
KFMY 271539Z 00000KT 10SM VCTS FEW031 SCT038 SCT047 32/24 A3001 RMK AO2 LTG DSNT N T03170244

Conditions at: KFMY observed 27 June 2017  15:05 UTC
Temperature: 31.1°C (88°F)
Dewpoint: 25.0°C (77°F) [RH = 70%]
Pressure (altimeter): 30.01 inches Hg (1016.3 mb)
Winds: from the S (180 degrees) at 6 MPH (5 knots; 2.6 m/s)
Visibility: 10 or more miles (16+ km)
Ceiling: at least 12,000 feet AGL
Clouds: scattered clouds at 2500 feet AGL
Present Weather: no significant weather observed at this time
KFMY 271505Z 18005KT 10SM SCT025 31/25 A3001 RMK AO2 T03110250

Conditions at: KFMY observed 27 June 2017  14:53 UTC
Temperature: 29.4°C (85°F)
Dewpoint: 24.4°C (76°F) [RH = 75%]
Pressure (altimeter): 30.01 inches Hg (1016.3 mb)
[Sea-level pressure: 1016.5 mb]
Winds: from the SSW (210 degrees) at 3 MPH (3 knots; 1.6 m/s)
Visibility: 10 or more miles (16+ km)
Ceiling: 2500 feet AGL
Clouds: broken clouds at 2500 feet AGL
broken clouds at 3600 feet AGL
Present Weather: no significant weather observed at this time
KFMY 271453Z 21003KT 10SM BKN025 BKN036 29/24 A3001 RMK AO2 SLP165 T02940244 50003

Conditions at: KFMY observed 27 June 2017  14:48 UTC
Temperature: 29.0°C (84°F)
Dewpoint: 24.0°C (75°F) [RH = 74%]
Pressure (altimeter): 30.01 inches Hg (1016.3 mb)
Winds: from the SW (230 degrees) at 6 MPH (5 knots; 2.6 m/s)
Visibility: 10 or more miles (16+ km)
Ceiling: 2600 feet AGL
Clouds: broken clouds at 2600 feet AGL
broken clouds at 3600 feet AGL
Present Weather: no significant weather observed at this time
KFMY 271448Z 23005KT 10SM BKN026 BKN036 29/24 A3001 RMK AO2

Conditions at: KFMY observed 27 June 2017  13:53 UTC
Temperature: 29.4°C (85°F)
Dewpoint: 24.4°C (76°F) [RH = 75%]
Pressure (altimeter): 30.01 inches Hg (1016.3 mb)
[Sea-level pressure: 1016.5 mb]
Winds: from the SW (230 degrees) at 7 MPH (6 knots; 3.1 m/s)
Visibility: 10 or more miles (16+ km)
Ceiling: at least 12,000 feet AGL
Clouds: few clouds at 3000 feet AGL
Present Weather: no significant weather observed at this time
KFMY 271353Z 23006KT 10SM FEW030 29/24 A3001 RMK AO2 SLP165 T02940244

Conditions at: KFMY observed 27 June 2017  12:53 UTC
Temperature: 27.8°C (82°F)
Dewpoint: 23.9°C (75°F) [RH = 79%]
Pressure (altimeter): 30.00 inches Hg (1016.0 mb)
[Sea-level pressure: 1016.2 mb]
Winds: from the S (180 degrees) at 6 MPH (5 knots; 2.6 m/s)
Visibility: 10 or more miles (16+ km)
Ceiling: at least 12,000 feet AGL
Clouds: sky clear below 12,000 feet AGL
Present Weather: no significant weather observed at this time
KFMY 271253Z 18005KT 10SM CLR 28/24 A3000 RMK AO2 SLP162 T02780239